Time;durP1;ratioP1;P1;durP2;ratioP2;P2;SDS_P1;SDS_P2;PMS_P1;PMS_P2;Temp;Humidity;BMP_temperature;BMP_pressure;BME280_temperature;BME280_humidity;BME280_pressure;Samples;Min_cycle;Max_cycle;Signal;HPM_P1;HPM_P2
2023/10/13 00:02:13;;;;;;;;;;;17.10;99.90;;;;;;2616397;47;19955;-75
2023/10/13 00:04:46;;;;;;;;;;;17.10;99.90;;;;;;2617221;47;19946;-75
2023/10/13 00:07:18;;;;;;;;;;;17.10;99.90;;;;;;2616786;47;19957;-74
2023/10/13 00:09:48;;;;;;;;;;;17.10;99.90;;;;;;2616369;47;19946;-74
2023/10/13 00:12:23;;;;;;;;;;;17.10;99.90;;;;;;2616536;47;19939;-74
2023/10/13 00:14:53;;;;;;;;;;;17.10;99.90;;;;;;2616860;39;20178;-74
2023/10/13 00:17:24;;;;;;;;;;;17.10;99.90;;;;;;2616757;39;20369;-75
2023/10/13 00:19:59;;;;;;;;;;;17.10;99.90;;;;;;2615914;39;20723;-75
2023/10/13 00:22:33;;;;;;;;;;;17.10;99.90;;;;;;2616832;54;19951;-74
2023/10/13 00:25:03;;;;;;;;;;;17.10;99.90;;;;;;2616312;54;19947;-74
2023/10/13 00:27:36;;;;;;;;;;;17.10;99.90;;;;;;2616526;54;19999;-74
2023/10/13 00:30:22;;;;;;;;;;;17.10;99.90;;;;;;2617912;47;19970;-73
2023/10/13 00:32:55;;;;;;;;;;;17.00;99.90;;;;;;2616628;47;19946;-75
2023/10/13 00:35:29;;;;;;;;;;;17.00;99.90;;;;;;2617919;46;19946;-73
2023/10/13 00:38:04;;;;;;;;;;;17.00;99.90;;;;;;2617997;39;20341;-73
2023/10/13 00:40:44;;;;;;;;;;;17.00;99.90;;;;;;2617474;47;19947;-74
2023/10/13 00:46:06;;;;;;;;;;;16.90;99.90;;;;;;2616840;54;19979;-74
2023/10/13 00:48:42;;;;;;;;;;;16.90;99.90;;;;;;2617900;47;19946;-75
2023/10/13 00:51:18;;;;;;;;;;;16.90;99.90;;;;;;2617074;50;19954;-75
2023/10/13 00:53:48;;;;;;;;;;;16.90;99.90;;;;;;2615393;47;19968;-75
2023/10/13 00:56:22;;;;;;;;;;;16.90;99.90;;;;;;2616875;47;19946;-75
2023/10/13 00:58:51;;;;;;;;;;;16.90;99.90;;;;;;2615916;47;19959;-73
2023/10/13 01:01:21;;;;;;;;;;;16.90;99.90;;;;;;2616799;47;19938;-74
2023/10/13 01:03:49;;;;;;;;;;;16.90;99.90;;;;;;2617767;46;19962;-75
2023/10/13 01:06:20;;;;;;;;;;;16.90;99.90;;;;;;2617559;47;19947;-75
2023/10/13 01:08:56;;;;;;;;;;;16.90;99.90;;;;;;2617532;39;20361;-75
2023/10/13 01:11:29;;;;;;;;;;;16.90;99.90;;;;;;2617954;39;20628;-75
2023/10/13 01:13:56;;;;;;;;;;;16.90;99.90;;;;;;2616705;54;19946;-76
2023/10/13 01:16:26;;;;;;;;;;;16.90;99.90;;;;;;2617507;47;19938;-75
2023/10/13 01:18:59;;;;;;;;;;;16.90;99.90;;;;;;2617239;47;19973;-76
2023/10/13 01:21:29;;;;;;;;;;;16.90;99.90;;;;;;2617202;47;19939;-76
2023/10/13 01:24:05;;;;;;;;;;;16.90;99.90;;;;;;2617207;54;19950;-75
2023/10/13 01:26:38;;;;;;;;;;;16.90;99.90;;;;;;2619305;39;20327;-76
2023/10/13 01:29:12;;;;;;;;;;;16.90;99.90;;;;;;2616709;47;19973;-74
2023/10/13 01:31:45;;;;;;;;;;;16.90;99.90;;;;;;2616297;47;19954;-76
2023/10/13 01:34:14;;;;;;;;;;;17.00;99.90;;;;;;2617256;47;19939;-75
2023/10/13 01:36:44;;;;;;;;;;;16.90;99.90;;;;;;2617849;47;19987;-76
2023/10/13 01:39:16;;;;;;;;;;;16.90;99.90;;;;;;2617061;47;19950;-75
2023/10/13 01:41:46;;;;;;;;;;;16.90;99.90;;;;;;2617889;47;20047;-75
2023/10/13 01:44:14;;;;;;;;;;;16.90;99.90;;;;;;2617276;47;19946;-74
2023/10/13 01:46:47;;;;;;;;;;;16.90;99.90;;;;;;2617795;39;20416;-75
2023/10/13 01:49:15;;;;;;;;;;;16.90;99.90;;;;;;2617532;54;19945;-75
2023/10/13 01:51:47;;;;;;;;;;;16.90;99.90;;;;;;2616918;54;20076;-74
2023/10/13 01:54:17;;;;;;;;;;;16.90;99.90;;;;;;2616913;47;19945;-74
2023/10/13 01:56:48;;;;;;;;;;;16.90;99.90;;;;;;2618253;54;20034;-75
2023/10/13 01:59:17;;;;;;;;;;;16.90;99.90;;;;;;2617964;54;19954;-74
2023/10/13 02:01:47;;;;;;;;;;;16.80;99.90;;;;;;2616776;54;19950;-74
2023/10/13 02:04:14;;;;;;;;;;;16.80;99.90;;;;;;2617465;47;19952;-74
2023/10/13 02:06:44;;;;;;;;;;;16.80;99.90;;;;;;2617689;47;20064;-74
2023/10/13 02:09:12;;;;;;;;;;;16.80;99.90;;;;;;2617532;46;19945;-74
2023/10/13 02:11:54;;;;;;;;;;;16.80;99.90;;;;;;2617113;54;19984;-73
2023/10/13 02:14:22;;;;;;;;;;;16.80;99.90;;;;;;2617683;54;19953;-75
2023/10/13 02:16:55;;;;;;;;;;;16.80;99.90;;;;;;2617514;54;20936;-75
2023/10/13 02:19:27;;;;;;;;;;;16.80;99.90;;;;;;2617726;47;20041;-75
2023/10/13 02:22:03;;;;;;;;;;;16.80;99.90;;;;;;2616789;46;19967;-73
2023/10/13 02:24:30;;;;;;;;;;;16.80;99.90;;;;;;2617475;47;20043;-74
2023/10/13 02:27:04;;;;;;;;;;;16.80;99.90;;;;;;2617657;54;20006;-74
2023/10/13 02:29:38;;;;;;;;;;;16.80;99.90;;;;;;2617044;47;19954;-74
2023/10/13 05:48:11;;;;;;;;;;;16.80;99.90;;;;;;2624358;47;19958;-80
2023/10/13 05:51:32;;;;;;;;;;;16.90;99.90;;;;;;2623640;47;19950;-82
2023/10/13 06:29:26;;;;;;;;;;;16.90;99.90;;;;;;2626867;54;20356;-85
2023/10/13 06:31:57;;;;;;;;;;;16.90;99.90;;;;;;2618750;54;19950;-77
2023/10/13 06:34:37;;;;;;;;;;;17.00;99.90;;;;;;2619674;54;19947;-77
2023/10/13 06:37:22;;;;;;;;;;;17.00;99.90;;;;;;2620851;47;19946;-81
2023/10/13 06:39:52;;;;;;;;;;;17.00;99.90;;;;;;2620585;47;20030;-77
2023/10/13 06:42:22;;;;;;;;;;;17.00;99.90;;;;;;2624369;54;19968;-79
2023/10/13 06:44:53;;;;;;;;;;;17.10;99.90;;;;;;2628130;54;19968;-81
2023/10/13 06:47:24;;;;;;;;;;;17.10;99.90;;;;;;2629585;47;19967;-80
2023/10/13 06:49:57;;;;;;;;;;;17.20;99.90;;;;;;2629306;54;20606;-82
2023/10/13 06:52:29;;;;;;;;;;;17.20;99.90;;;;;;2629447;54;19942;-82
2023/10/13 06:55:05;;;;;;;;;;;17.30;99.90;;;;;;2628274;54;19943;-80
2023/10/13 06:57:37;;;;;;;;;;;17.30;99.90;;;;;;2629312;47;19958;-81
2023/10/13 07:00:12;;;;;;;;;;;17.30;99.90;;;;;;2627608;47;19951;-80
2023/10/13 07:02:43;;;;;;;;;;;17.30;99.90;;;;;;2625484;47;19975;-81
2023/10/13 07:05:16;;;;;;;;;;;17.40;99.90;;;;;;2627783;54;19967;-80
2023/10/13 07:07:47;;;;;;;;;;;17.40;99.90;;;;;;2624584;54;19977;-80
2023/10/13 07:10:17;;;;;;;;;;;17.50;99.90;;;;;;2628240;47;19950;-84
2023/10/13 07:12:49;;;;;;;;;;;17.80;99.90;;;;;;2628861;51;19934;-86
2023/10/13 07:15:27;;;;;;;;;;;17.50;99.90;;;;;;2627777;47;19954;-85
2023/10/13 07:17:59;;;;;;;;;;;17.50;99.90;;;;;;2628276;47;19995;-83
2023/10/13 07:20:36;;;;;;;;;;;17.60;99.90;;;;;;2626626;47;19950;-81
2023/10/13 07:23:06;;;;;;;;;;;17.70;99.90;;;;;;2625566;54;19946;-81
2023/10/13 07:25:40;;;;;;;;;;;17.70;99.90;;;;;;2627024;47;19954;-86
2023/10/13 07:28:10;;;;;;;;;;;17.80;99.90;;;;;;2625961;54;19950;-81
2023/10/13 07:30:49;;;;;;;;;;;17.80;99.90;;;;;;2628411;39;20378;-80
2023/10/13 07:33:19;;;;;;;;;;;18.30;99.90;;;;;;2626480;54;19938;-79
2023/10/13 07:36:10;;;;;;;;;;;17.80;99.90;;;;;;2627467;54;19990;-83
2023/10/13 07:38:42;;;;;;;;;;;17.90;99.90;;;;;;2628801;54;19967;-77
2023/10/13 07:41:15;;;;;;;;;;;17.90;99.90;;;;;;2628308;54;19971;-79
2023/10/13 07:43:47;;;;;;;;;;;16.70;99.90;;;;;;2628203;54;19934;-82
2023/10/13 07:46:24;;;;;;;;;;;18.00;99.90;;;;;;2628170;54;19965;-83
2023/10/13 07:49:08;;;;;;;;;;;18.00;99.90;;;;;;2627853;54;19992;-81
2023/10/13 07:51:44;;;;;;;;;;;18.10;99.90;;;;;;2626060;54;19996;-79
2023/10/13 07:54:21;;;;;;;;;;;18.10;99.90;;;;;;2627621;46;19951;-79
2023/10/13 07:56:52;;;;;;;;;;;18.10;99.90;;;;;;2625210;54;20786;-79
2023/10/13 07:59:23;;;;;;;;;;;18.20;99.90;;;;;;2624653;47;19946;-80
2023/10/13 08:04:36;;;;;;;;;;;18.20;99.90;;;;;;2622887;47;19972;-79
2023/10/13 08:07:15;;;;;;;;;;;18.20;99.90;;;;;;2620432;47;19954;-78
2023/10/13 08:09:51;;;;;;;;;;;18.30;99.90;;;;;;2618807;54;20927;-78
2023/10/13 08:12:23;;;;;;;;;;;18.30;99.90;;;;;;2617968;54;19946;-78
2023/10/13 08:15:11;;;;;;;;;;;18.40;99.90;;;;;;2618780;47;19992;-78
2023/10/13 08:17:44;;;;;;;;;;;18.40;99.90;;;;;;2618229;47;19970;-77
2023/10/13 08:20:16;;;;;;;;;;;18.50;99.90;;;;;;2618407;47;20052;-76
2023/10/13 08:22:50;;;;;;;;;;;18.60;99.90;;;;;;2618327;47;20481;-76
2023/10/13 08:26:13;;;;;;;;;;;18.60;99.90;;;;;;2618389;47;19946;-77
2023/10/13 08:31:14;;;;;;;;;;;18.70;99.90;;;;;;2618778;47;19956;-75
2023/10/13 08:33:46;;;;;;;;;;;18.80;99.90;;;;;;2620737;54;19946;-77
2023/10/13 08:36:30;;;;;;;;;;;18.80;99.90;;;;;;2623068;47;20075;-78
2023/10/13 08:39:22;;;;;;;;;;;18.90;99.90;;;;;;2619757;54;19950;-75
2023/10/13 08:42:10;;;;;;;;;;;18.80;99.90;;;;;;2617388;54;19943;-74
2023/10/13 08:44:43;;;;;;;;;;;18.80;99.90;;;;;;2618053;47;19947;-77
2023/10/13 08:47:17;;;;;;;;;;;18.80;99.90;;;;;;2618042;47;19939;-78
2023/10/13 08:49:50;;;;;;;;;;;18.90;99.90;;;;;;2618592;54;19951;-78
2023/10/13 08:58:03;;;;;;;;;;;19.00;99.90;;;;;;2618248;47;20042;-76
2023/10/13 09:06:06;;;;;;;;;;;19.20;99.90;;;;;;2617446;51;19947;-76
2023/10/13 09:08:44;;;;;;;;;;;19.20;99.90;;;;;;2617305;54;19939;-76
2023/10/13 09:11:20;;;;;;;;;;;19.20;99.90;;;;;;2617943;54;20424;-76
2023/10/13 09:13:51;;;;;;;;;;;19.30;99.90;;;;;;2619105;46;20056;-76
2023/10/13 09:16:51;;;;;;;;;;;19.40;99.90;;;;;;2618709;47;19955;-75
2023/10/13 09:22:03;;;;;;;;;;;19.60;99.90;;;;;;2616347;54;19958;-75
2023/10/13 09:24:31;;;;;;;;;;;19.80;99.90;;;;;;2616380;54;19949;-76
2023/10/13 09:27:04;;;;;;;;;;;19.90;99.90;;;;;;2622099;47;20022;-75
2023/10/13 09:29:38;;;;;;;;;;;20.10;99.90;;;;;;2617700;54;19947;-75
2023/10/13 09:32:11;;;;;;;;;;;20.20;99.90;;;;;;2617180;47;19947;-76
2023/10/13 09:34:44;;;;;;;;;;;20.50;99.90;;;;;;2616701;54;19946;-76
2023/10/13 09:37:15;;;;;;;;;;;20.40;99.90;;;;;;2617182;46;19966;-75
2023/10/13 09:39:48;;;;;;;;;;;20.50;99.90;;;;;;2616829;54;19958;-75
2023/10/13 09:42:18;;;;;;;;;;;20.60;99.90;;;;;;2616707;54;20547;-76
2023/10/13 09:44:55;;;;;;;;;;;20.70;99.90;;;;;;2611049;47;19954;-75
2023/10/13 09:47:30;;;;;;;;;;;20.80;99.90;;;;;;2612234;54;19953;-75
2023/10/13 09:50:13;;;;;;;;;;;20.80;99.90;;;;;;2611870;47;20046;-76
2023/10/13 09:52:42;;;;;;;;;;;20.90;99.90;;;;;;2612440;54;19954;-76
2023/10/13 09:55:18;;;;;;;;;;;21.00;99.90;;;;;;2612843;47;20489;-76
2023/10/13 09:57:57;;;;;;;;;;;21.00;99.90;;;;;;2612128;54;19977;-75
2023/10/13 10:00:44;;;;;;;;;;;21.20;99.90;;;;;;2612605;47;19946;-76
2023/10/13 10:03:15;;;;;;;;;;;21.30;99.90;;;;;;2615838;54;19946;-75
2023/10/13 10:05:49;;;;;;;;;;;21.40;99.90;;;;;;2616730;47;20076;-75
2023/10/13 10:08:33;;;;;;;;;;;21.50;99.90;;;;;;2616367;54;20033;-75
2023/10/13 10:11:07;;;;;;;;;;;21.50;99.90;;;;;;2615435;54;20042;-75
2023/10/13 10:13:44;;;;;;;;;;;21.60;99.90;;;;;;2615862;54;19950;-74
2023/10/13 10:16:19;;;;;;;;;;;21.60;99.90;;;;;;2616167;54;20003;-75
2023/10/13 10:18:50;;;;;;;;;;;21.60;99.90;;;;;;2615818;54;20468;-75
2023/10/13 10:21:22;;;;;;;;;;;21.70;99.90;;;;;;2615793;54;20038;-75
2023/10/13 10:23:55;;;;;;;;;;;21.80;99.90;;;;;;2615803;54;20041;-76
2023/10/13 10:26:25;;;;;;;;;;;21.90;99.90;;;;;;2616033;54;19942;-75
2023/10/13 10:29:07;;;;;;;;;;;22.00;99.90;;;;;;2615954;54;20042;-76
2023/10/13 10:31:44;;;;;;;;;;;22.00;99.90;;;;;;2616077;54;20000;-75
2023/10/13 10:34:18;;;;;;;;;;;22.00;99.90;;;;;;2615831;54;19954;-75
2023/10/13 10:36:51;;;;;;;;;;;22.00;99.90;;;;;;2616633;54;19950;-76
2023/10/13 10:39:28;;;;;;;;;;;22.10;99.90;;;;;;2616306;47;19987;-77
2023/10/13 10:42:15;;;;;;;;;;;22.30;99.90;;;;;;2615987;54;19954;-77
2023/10/13 10:44:48;;;;;;;;;;;22.50;99.90;;;;;;2616200;54;19945;-76
2023/10/13 10:47:30;;;;;;;;;;;22.70;99.90;;;;;;2615271;54;19971;-75
2023/10/13 10:50:19;;;;;;;;;;;22.90;99.90;;;;;;2615949;54;20003;-74
2023/10/13 10:52:50;;;;;;;;;;;23.10;99.90;;;;;;2615615;54;19962;-74
2023/10/13 10:55:27;;;;;;;;;;;23.20;99.90;;;;;;2615774;39;20343;-76
2023/10/13 10:58:01;;;;;;;;;;;23.30;99.90;;;;;;2616574;54;20444;-75
2023/10/13 11:00:41;;;;;;;;;;;23.40;99.90;;;;;;2616061;54;19958;-79
2023/10/13 11:03:11;;;;;;;;;;;23.50;99.90;;;;;;2622481;47;19947;-75
2023/10/13 11:05:48;;;;;;;;;;;23.50;99.90;;;;;;2619086;54;20030;-74
2023/10/13 11:08:31;;;;;;;;;;;23.60;99.90;;;;;;2616530;47;19974;-74
2023/10/13 11:11:05;;;;;;;;;;;23.50;99.90;;;;;;2615235;54;19947;-75
2023/10/13 11:13:50;;;;;;;;;;;23.50;99.90;;;;;;2616155;47;19947;-78
2023/10/13 11:16:34;;;;;;;;;;;23.40;99.90;;;;;;2618258;39;20419;-77
2023/10/13 11:19:05;;;;;;;;;;;23.40;99.90;;;;;;2617270;54;19947;-77
2023/10/13 11:21:37;;;;;;;;;;;23.30;99.90;;;;;;2616928;47;19938;-77
2023/10/13 11:24:11;;;;;;;;;;;23.30;99.90;;;;;;2617956;54;19991;-80
2023/10/13 11:26:49;;;;;;;;;;;23.20;99.90;;;;;;2623587;54;19946;-79
2023/10/13 11:29:22;;;;;;;;;;;23.20;99.90;;;;;;2624098;47;20772;-79
2023/10/13 11:31:58;;;;;;;;;;;23.20;99.90;;;;;;2623697;47;19939;-80
2023/10/13 11:34:39;;;;;;;;;;;23.20;99.90;;;;;;2618681;47;19946;-77
2023/10/13 11:39:52;;;;;;;;;;;23.20;99.90;;;;;;2616495;47;19947;-78
2023/10/13 11:42:22;;;;;;;;;;;23.60;99.90;;;;;;2615946;47;19995;-77
2023/10/13 11:45:16;;;;;;;;;;;23.60;99.90;;;;;;2616636;54;19946;-78
2023/10/13 11:47:58;;;;;;;;;;;23.70;99.90;;;;;;2618025;47;19974;-78
2023/10/13 11:50:35;;;;;;;;;;;25.00;99.90;;;;;;2621204;47;19991;-76
2023/10/13 11:53:07;;;;;;;;;;;24.20;99.90;;;;;;2615906;54;19947;-76
2023/10/13 11:55:37;;;;;;;;;;;23.80;99.90;;;;;;2616388;47;19979;-76
2023/10/13 11:58:07;;;;;;;;;;;23.80;99.90;;;;;;2615804;47;19947;-78
2023/10/13 12:06:32;;;;;;;;;;;23.60;99.90;;;;;;2616463;47;20033;-76
2023/10/13 12:09:14;;;;;;;;;;;23.40;99.90;;;;;;2617921;47;19946;-78
2023/10/13 12:11:45;;;;;;;;;;;23.40;99.90;;;;;;2615907;54;19966;-77
2023/10/13 12:14:16;;;;;;;;;;;23.30;99.90;;;;;;2622273;39;20374;-81
2023/10/13 12:16:50;;;;;;;;;;;23.30;99.90;;;;;;2621548;54;20459;-79
2023/10/13 12:19:23;;;;;;;;;;;23.20;99.90;;;;;;2619624;54;20063;-78
2023/10/13 12:21:55;;;;;;;;;;;23.20;99.90;;;;;;2618635;54;19942;-76
2023/10/13 12:24:39;;;;;;;;;;;23.20;99.90;;;;;;2615781;47;20001;-77
2023/10/13 12:27:18;;;;;;;;;;;23.20;99.90;;;;;;2616247;54;19951;-78
2023/10/13 12:29:49;;;;;;;;;;;23.20;99.90;;;;;;2617700;54;20026;-78
2023/10/13 12:32:22;;;;;;;;;;;23.20;99.90;;;;;;2618040;47;19973;-78
2023/10/13 12:35:16;;;;;;;;;;;23.20;99.90;;;;;;2617983;47;19947;-76
2023/10/13 12:38:04;;;;;;;;;;;23.30;99.90;;;;;;2620693;47;19939;-79
2023/10/13 12:49:17;;;;;;;;;;;23.40;99.90;;;;;;2617764;54;19938;-77
2023/10/13 12:51:59;;;;;;;;;;;23.40;99.90;;;;;;2617376;46;19958;-78
2023/10/13 12:54:35;;;;;;;;;;;23.40;99.90;;;;;;2617174;47;20045;-78
2023/10/13 12:57:09;;;;;;;;;;;23.40;99.90;;;;;;2617384;54;19946;-78
2023/10/13 12:59:39;;;;;;;;;;;23.40;99.90;;;;;;2618004;39;20433;-77
2023/10/13 13:02:14;;;;;;;;;;;23.40;99.90;;;;;;2616945;46;20053;-77
2023/10/13 13:04:45;;;;;;;;;;;23.40;99.90;;;;;;2617894;54;19950;-78
2023/10/13 13:07:17;;;;;;;;;;;23.40;99.90;;;;;;2616972;47;19958;-77
2023/10/13 13:09:50;;;;;;;;;;;23.40;99.90;;;;;;2617160;54;20083;-76
2023/10/13 13:12:20;;;;;;;;;;;23.50;99.90;;;;;;2616526;47;19946;-77
2023/10/13 13:14:54;;;;;;;;;;;23.50;99.90;;;;;;2617645;47;20030;-77
2023/10/13 13:17:24;;;;;;;;;;;23.50;99.90;;;;;;2617366;47;19988;-77
2023/10/13 13:19:54;;;;;;;;;;;23.60;99.90;;;;;;2619631;47;20040;-80
2023/10/13 13:22:37;;;;;;;;;;;23.70;99.90;;;;;;2618754;47;19946;-78
2023/10/13 13:25:18;;;;;;;;;;;23.80;99.90;;;;;;2617002;46;19966;-77
2023/10/13 13:27:48;;;;;;;;;;;23.80;99.90;;;;;;2617244;54;20002;-77
2023/10/13 13:30:20;;;;;;;;;;;24.00;99.90;;;;;;2615958;54;19965;-75
2023/10/13 13:32:51;;;;;;;;;;;24.00;99.90;;;;;;2615600;47;19953;-77
2023/10/13 13:35:21;;;;;;;;;;;24.10;99.90;;;;;;2615464;47;20037;-76
2023/10/13 13:37:53;;;;;;;;;;;24.30;99.90;;;;;;2615749;54;19954;-76
2023/10/13 13:40:33;;;;;;;;;;;24.30;99.90;;;;;;2615881;52;19950;-75
2023/10/13 13:43:04;;;;;;;;;;;24.40;99.90;;;;;;2615623;54;19946;-75
2023/10/13 13:45:41;;;;;;;;;;;24.50;99.90;;;;;;2615814;54;19957;-75
2023/10/13 13:48:15;;;;;;;;;;;24.50;99.90;;;;;;2616008;51;20053;-76
2023/10/13 13:50:51;;;;;;;;;;;24.50;99.90;;;;;;2616619;47;19938;-76
2023/10/13 13:53:31;;;;;;;;;;;24.50;99.90;;;;;;2617883;47;19947;-76
2023/10/13 13:56:02;;;;;;;;;;;24.50;99.90;;;;;;2616367;51;19997;-76
2023/10/13 13:58:32;;;;;;;;;;;24.50;99.90;;;;;;2616379;54;20068;-76
2023/10/13 14:01:11;;;;;;;;;;;24.50;99.90;;;;;;2616356;54;20451;-77
2023/10/13 14:03:45;;;;;;;;;;;24.50;99.90;;;;;;2616095;47;19997;-77
2023/10/13 14:06:21;;;;;;;;;;;24.50;99.90;;;;;;2616491;54;20068;-77
2023/10/13 14:08:54;;;;;;;;;;;24.50;99.90;;;;;;2616343;47;20072;-77
2023/10/13 14:12:25;;;;;;;;;;;24.50;99.90;;;;;;2616967;47;19981;-77
2023/10/13 14:14:28;;;;;;;;;;;24.50;99.90;;;;;;2619012;47;20018;-77
2023/10/13 14:17:06;;;;;;;;;;;24.60;99.90;;;;;;2621818;47;19977;-76
2023/10/13 14:19:40;;;;;;;;;;;24.60;99.90;;;;;;2619428;47;19980;-77
2023/10/13 14:22:12;;;;;;;;;;;24.60;99.90;;;;;;2616623;47;20029;-77
2023/10/13 14:24:51;;;;;;;;;;;24.70;99.90;;;;;;2617195;51;20036;-77
2023/10/13 14:27:23;;;;;;;;;;;24.70;99.90;;;;;;2616723;47;20048;-77
2023/10/13 14:29:57;;;;;;;;;;;24.80;99.90;;;;;;2619260;39;20351;-77
2023/10/13 14:35:40;;;;;;;;;;;25.00;99.90;;;;;;2616537;47;19993;-76
2023/10/13 14:38:10;;;;;;;;;;;25.10;99.90;;;;;;2618675;46;19939;-79
2023/10/13 14:40:42;;;;;;;;;;;25.10;99.90;;;;;;2623127;54;19939;-79
2023/10/13 14:43:12;;;;;;;;;;;25.30;99.90;;;;;;2619589;47;19965;-79
2023/10/13 14:45:42;;;;;;;;;;;25.70;99.90;;;;;;2618712;54;20428;-79
2023/10/13 14:48:12;;;;;;;;;;;27.40;99.90;;;;;;2617217;54;20042;-79
2023/10/13 14:50:45;;;;;;;;;;;29.30;99.90;;;;;;2617508;54;19946;-79
2023/10/13 14:53:19;;;;;;;;;;;31.30;99.90;;;;;;2618373;39;20358;-80
2023/10/13 14:55:52;;;;;;;;;;;32.90;99.90;;;;;;2617968;39;20354;-78
2023/10/13 14:58:26;;;;;;;;;;;33.00;99.90;;;;;;2617856;47;19999;-80
2023/10/13 15:00:58;;;;;;;;;;;32.30;99.90;;;;;;2618059;54;20489;-80
2023/10/13 15:03:28;;;;;;;;;;;31.50;99.90;;;;;;2617892;47;19950;-79
2023/10/13 15:05:58;;;;;;;;;;;30.60;99.90;;;;;;2617687;47;19946;-80
2023/10/13 15:08:28;;;;;;;;;;;29.80;99.90;;;;;;2617891;39;20317;-79
2023/10/13 15:11:12;;;;;;;;;;;28.80;99.90;;;;;;2617257;54;19964;-79
2023/10/13 15:13:42;;;;;;;;;;;28.50;99.90;;;;;;2620164;47;20048;-81
2023/10/13 15:16:16;;;;;;;;;;;27.90;99.90;;;;;;2621179;54;19938;-79
2023/10/13 15:18:47;;;;;;;;;;;27.80;99.90;;;;;;2618160;47;19991;-78
2023/10/13 15:21:21;;;;;;;;;;;27.70;99.90;;;;;;2609380;39;20421;-63
2023/10/13 15:23:51;;;;;;;;;;;27.50;99.90;;;;;;2615223;54;19953;-64
2023/10/13 15:26:25;;;;;;;;;;;27.20;99.90;;;;;;2616133;54;19938;-64
2023/10/13 15:28:55;;;;;;;;;;;26.80;99.90;;;;;;2615810;51;19946;-63
2023/10/13 15:31:37;;;;;;;;;;;26.50;99.90;;;;;;2613426;54;19945;-73
2023/10/13 15:34:12;;;;;;;;;;;26.20;99.90;;;;;;2615454;47;19950;-74
2023/10/13 15:36:43;;;;;;;;;;;25.80;99.90;;;;;;2615622;54;19947;-75
2023/10/13 15:39:15;;;;;;;;;;;25.60;99.90;;;;;;2616233;53;19946;-74
2023/10/13 15:41:52;;;;;;;;;;;25.40;99.90;;;;;;2616391;47;19953;-75
2023/10/13 15:44:24;;;;;;;;;;;25.20;99.90;;;;;;2616229;54;19947;-75
2023/10/13 15:46:55;;;;;;;;;;;25.00;99.90;;;;;;2616977;48;20458;-76
2023/10/13 15:49:29;;;;;;;;;;;24.80;99.90;;;;;;2616741;54;19947;-75
2023/10/13 15:51:59;;;;;;;;;;;24.70;99.90;;;;;;2617174;54;19938;-76
2023/10/13 15:54:29;;;;;;;;;;;24.50;99.90;;;;;;2617167;47;21182;-77
2023/10/13 15:57:01;;;;;;;;;;;24.40;99.90;;;;;;2617635;47;19939;-78
2023/10/13 15:59:34;;;;;;;;;;;24.30;99.90;;;;;;2617706;54;19953;-73
2023/10/13 16:02:07;;;;;;;;;;;24.20;99.90;;;;;;2618587;54;19951;-76
2023/10/13 16:04:37;;;;;;;;;;;24.00;99.90;;;;;;2617120;46;20061;-77
2023/10/13 16:07:08;;;;;;;;;;;23.90;99.90;;;;;;2614867;54;20454;-76
2023/10/13 16:09:38;;;;;;;;;;;23.90;99.90;;;;;;2615861;47;19946;-77
2023/10/13 16:12:15;;;;;;;;;;;23.70;99.90;;;;;;2617247;47;19954;-77
2023/10/13 16:14:45;;;;;;;;;;;23.60;99.90;;;;;;2618029;47;20564;-77
2023/10/13 16:17:15;;;;;;;;;;;23.50;99.90;;;;;;2618010;47;20437;-79
2023/10/13 16:19:46;;;;;;;;;;;23.40;99.90;;;;;;2621487;54;19950;-81
2023/10/13 16:22:18;;;;;;;;;;;23.30;99.90;;;;;;2622807;46;19950;-79
2023/10/13 16:24:48;;;;;;;;;;;23.40;99.90;;;;;;2619899;39;20125;-78
2023/10/13 16:27:21;;;;;;;;;;;23.10;99.90;;;;;;2618752;47;19939;-78
2023/10/13 16:29:50;;;;;;;;;;;23.00;99.90;;;;;;2619568;47;19957;-79
2023/10/13 16:32:23;;;;;;;;;;;22.90;99.90;;;;;;2618712;54;19942;-77
2023/10/13 16:34:52;;;;;;;;;;;22.80;99.90;;;;;;2618099;47;20754;-76
2023/10/13 16:37:22;;;;;;;;;;;22.80;99.90;;;;;;2617344;54;19946;-78
2023/10/13 16:39:53;;;;;;;;;;;22.70;99.90;;;;;;2617630;47;19946;-76
2023/10/13 16:42:25;;;;;;;;;;;22.60;99.90;;;;;;2616353;47;20541;-68
2023/10/13 16:44:55;;;;;;;;;;;22.50;99.90;;;;;;2617810;54;19954;-75
2023/10/13 16:47:25;;;;;;;;;;;22.40;99.90;;;;;;2615241;54;19939;-78
2023/10/13 16:49:55;;;;;;;;;;;22.40;99.90;;;;;;2617001;54;19958;-74
2023/10/13 16:52:24;;;;;;;;;;;22.30;99.90;;;;;;2616171;54;19973;-77
2023/10/13 16:54:54;;;;;;;;;;;22.20;99.90;;;;;;2617921;47;19942;-74
2023/10/13 16:57:26;;;;;;;;;;;22.20;99.90;;;;;;2617246;47;19954;-73
2023/10/13 16:59:56;;;;;;;;;;;20.20;99.90;;;;;;2613814;47;20046;-74
2023/10/13 17:02:26;;;;;;;;;;;22.10;99.90;;;;;;2616368;54;19946;-75
2023/10/13 17:04:57;;;;;;;;;;;22.00;99.90;;;;;;2616891;46;19953;-75
2023/10/13 17:07:27;;;;;;;;;;;21.90;99.90;;;;;;2619127;47;19950;-75
2023/10/13 17:09:57;;;;;;;;;;;21.90;99.90;;;;;;2620295;46;19958;-74
2023/10/13 17:12:29;;;;;;;;;;;21.80;99.90;;;;;;2614244;39;20371;-74
2023/10/13 17:14:59;;;;;;;;;;;21.80;99.90;;;;;;2615818;54;19947;-72
2023/10/13 17:17:29;;;;;;;;;;;21.70;99.90;;;;;;2616713;47;19939;-70
2023/10/13 17:19:59;;;;;;;;;;;21.70;99.90;;;;;;2616476;54;20034;-71
2023/10/13 17:22:29;;;;;;;;;;;21.70;99.90;;;;;;2614871;54;19955;-72
2023/10/13 17:25:01;;;;;;;;;;;21.60;99.90;;;;;;2615354;47;19953;-71
2023/10/13 17:27:36;;;;;;;;;;;21.60;99.90;;;;;;2616693;47;19986;-71
2023/10/13 17:30:08;;;;;;;;;;;21.60;99.90;;;;;;2615674;47;20088;-73
2023/10/13 17:32:38;;;;;;;;;;;21.50;99.90;;;;;;2617081;54;20500;-74
2023/10/13 17:35:11;;;;;;;;;;;21.40;99.90;;;;;;2616418;47;20495;-73
2023/10/13 17:37:43;;;;;;;;;;;21.40;99.90;;;;;;2616922;46;19950;-74
2023/10/13 17:40:15;;;;;;;;;;;21.40;99.90;;;;;;2616898;47;19946;-71
2023/10/13 17:42:49;;;;;;;;;;;21.30;99.90;;;;;;2617294;47;19953;-72
2023/10/13 17:45:19;;;;;;;;;;;21.20;99.90;;;;;;2616930;47;20447;-72
2023/10/13 17:47:48;;;;;;;;;;;21.20;99.90;;;;;;2617584;47;19947;-73
2023/10/13 17:50:19;;;;;;;;;;;21.20;99.90;;;;;;2617003;47;19958;-74
2023/10/13 17:52:49;;;;;;;;;;;21.10;99.90;;;;;;2616435;47;19954;-73
2023/10/13 17:55:19;;;;;;;;;;;21.10;99.90;;;;;;2617829;46;19951;-80
2023/10/13 17:57:51;;;;;;;;;;;21.00;99.90;;;;;;2618007;54;19946;-77
2023/10/13 18:00:25;;;;;;;;;;;20.90;99.90;;;;;;2618047;47;19955;-76
2023/10/13 18:02:55;;;;;;;;;;;20.50;99.90;;;;;;2620257;46;20022;-75
2023/10/13 18:05:24;;;;;;;;;;;20.90;99.90;;;;;;2617820;39;20380;-74
2023/10/13 18:07:54;;;;;;;;;;;20.90;99.90;;;;;;2629309;39;19978;-80
2023/10/13 18:10:24;;;;;;;;;;;20.90;99.90;;;;;;2627668;39;20341;-76
2023/10/13 18:13:00;;;;;;;;;;;20.90;99.90;;;;;;2620179;54;20458;-79
2023/10/13 18:15:31;;;;;;;;;;;20.80;99.90;;;;;;2618691;47;19951;-78
2023/10/13 18:18:01;;;;;;;;;;;20.70;99.90;;;;;;2619821;47;19957;-81
2023/10/13 18:20:31;;;;;;;;;;;20.70;99.90;;;;;;2624549;31;20431;-74
2023/10/13 18:23:01;;;;;;;;;;;20.70;99.90;;;;;;2615365;39;20477;-73
2023/10/13 18:25:31;;;;;;;;;;;20.70;99.90;;;;;;2615230;54;20042;-71
2023/10/13 18:28:04;;;;;;;;;;;20.60;99.90;;;;;;2615940;54;19951;-71
2023/10/13 18:30:35;;;;;;;;;;;20.60;99.90;;;;;;2615503;46;20087;-71
2023/10/13 18:33:07;;;;;;;;;;;20.60;99.90;;;;;;2615601;39;20009;-73
2023/10/13 18:35:37;;;;;;;;;;;20.50;99.90;;;;;;2615229;50;20498;-74
2023/10/13 18:38:10;;;;;;;;;;;20.50;99.90;;;;;;2616920;54;19989;-75
2023/10/13 18:40:40;;;;;;;;;;;20.40;99.90;;;;;;2617460;47;19950;-72
2023/10/13 18:43:13;;;;;;;;;;;20.40;99.90;;;;;;2617630;54;20003;-73
2023/10/13 18:45:43;;;;;;;;;;;20.40;99.90;;;;;;2618048;47;19951;-71
2023/10/13 18:48:14;;;;;;;;;;;20.30;99.90;;;;;;2616799;47;20517;-71
2023/10/13 18:50:44;;;;;;;;;;;20.30;99.90;;;;;;2616530;47;19946;-72
2023/10/13 18:53:13;;;;;;;;;;;20.20;99.90;;;;;;2615877;47;19955;-72
2023/10/13 18:55:46;;;;;;;;;;;20.20;99.90;;;;;;2616528;54;19954;-72
2023/10/13 18:58:19;;;;;;;;;;;20.20;99.90;;;;;;2616587;54;19961;-73
2023/10/13 19:00:49;;;;;;;;;;;20.20;99.90;;;;;;2615747;54;19947;-72
2023/10/13 19:03:19;;;;;;;;;;;20.30;99.90;;;;;;2615587;47;20446;-72
2023/10/13 19:05:58;;;;;;;;;;;20.10;99.90;;;;;;2616158;47;19939;-73
2023/10/13 19:08:29;;;;;;;;;;;20.10;99.90;;;;;;2615596;47;20045;-72
2023/10/13 19:11:00;;;;;;;;;;;20.00;99.90;;;;;;2616403;47;19951;-72
2023/10/13 19:13:32;;;;;;;;;;;20.00;99.90;;;;;;2615493;47;19947;-74
2023/10/13 19:16:06;;;;;;;;;;;19.90;99.90;;;;;;2615981;47;19954;-73
2023/10/13 19:18:37;;;;;;;;;;;20.00;99.90;;;;;;2615717;54;19951;-73
2023/10/13 19:21:14;;;;;;;;;;;19.90;99.90;;;;;;2616458;47;19950;-72
2023/10/13 19:23:46;;;;;;;;;;;19.90;99.90;;;;;;2613834;47;19975;-70
2023/10/13 19:26:16;;;;;;;;;;;19.80;99.90;;;;;;2616160;54;19950;-71
2023/10/13 19:28:48;;;;;;;;;;;20.00;99.90;;;;;;2616898;39;20346;-71